createdAt,value
2022-10-04T00:03:32.116Z,2.30
2022-10-04T00:09:16.388Z,4.05
2022-10-04T00:14:34.760Z,3.45
2022-10-04T00:20:06.879Z,3.40
2022-10-04T00:31:34.591Z,2.28
2022-10-04T00:37:06.537Z,2.72
2022-10-04T00:42:28.939Z,2.67
2022-10-04T00:47:51.266Z,2.10
2022-10-04T00:58:47.843Z,1.38
2022-10-04T01:04:48.845Z,2.00
2022-10-04T01:10:42.872Z,1.25
2022-10-04T01:16:13.814Z,1.50
2022-10-04T01:21:51.660Z,1.55
2022-10-04T01:26:58.270Z,1.20
2022-10-04T01:32:34.127Z,2.75
2022-10-04T01:38:16.090Z,1.10
2022-10-04T01:43:31.586Z,1.90
2022-10-04T01:49:00.486Z,1.55
2022-10-04T01:54:14.937Z,1.80
2022-10-04T02:00:09.317Z,1.83
2022-10-04T02:05:53.198Z,2.03
2022-10-04T02:10:57.806Z,1.50
2022-10-04T02:22:27.155Z,1.30
2022-10-04T02:27:49.260Z,1.33
2022-10-04T02:33:04.553Z,2.85
2022-10-04T02:38:37.955Z,1.70
2022-10-04T02:44:13.726Z,1.00
2022-10-04T02:50:05.535Z,1.48
2022-10-04T03:01:49.945Z,1.08
2022-10-04T03:07:10.541Z,0.80
2022-10-04T03:38:16.333Z,1.10
2022-10-04T03:50:14.246Z,0.73
2022-10-04T03:56:31.071Z,0.68
2022-10-04T04:03:03.368Z,0.95
2022-10-04T04:08:55.146Z,1.02
2022-10-04T04:22:04.898Z,0.35
2022-10-04T04:27:18.816Z,0.55
2022-10-04T04:45:13.824Z,0.50
2022-10-04T04:50:39.925Z,0.40
2022-10-04T05:34:01.051Z,0.32
2022-10-04T05:39:25.494Z,0.68
2022-10-04T05:56:56.683Z,0.70
2022-10-04T06:09:36.370Z,0.75
2022-10-04T06:15:23.064Z,0.77
2022-10-04T06:26:45.449Z,1.05
2022-10-04T06:40:13.840Z,0.95
2022-10-04T06:45:58.973Z,0.70
2022-10-04T06:51:40.329Z,0.68
2022-10-04T07:03:07.947Z,0.30
2022-10-04T07:42:14.820Z,0.30
2022-10-04T07:48:00.333Z,0.20
2022-10-04T07:53:48.907Z,0.20
2022-10-04T07:59:26.106Z,0.30
2022-10-04T08:04:53.222Z,0.40
2022-10-04T08:10:28.639Z,0.10
2022-10-04T08:16:02.701Z,0.05
2022-10-04T08:21:37.807Z,0.25
2022-10-04T08:27:04.882Z,0.30
2022-10-04T08:32:25.332Z,0.13
2022-10-04T08:38:11.429Z,0.20
2022-10-04T08:50:18.183Z,0.20
2022-10-04T09:03:37.060Z,0.10
2022-10-04T09:10:30.637Z,0.80
2022-10-04T09:16:19.927Z,0.73
2022-10-04T09:21:55.621Z,0.20
2022-10-04T09:27:56.352Z,1.48
2022-10-04T09:33:18.699Z,0.20
2022-10-04T09:38:29.118Z,0.10
2022-10-04T09:43:51.190Z,0.00
2022-10-04T09:49:13.937Z,0.05
2022-10-04T09:54:46.094Z,0.10
2022-10-04T10:00:07.360Z,0.10
2022-10-04T10:05:36.520Z,0.32
2022-10-04T10:11:23.038Z,0.00
2022-10-04T10:16:49.162Z,0.10
2022-10-04T10:22:06.474Z,0.00
2022-10-04T10:27:29.935Z,0.10
2022-10-04T10:32:57.199Z,0.10
2022-10-04T10:38:26.669Z,0.00
2022-10-04T10:43:41.912Z,0.10
2022-10-04T10:49:11.262Z,0.10
2022-10-04T10:54:42.095Z,0.20
2022-10-04T10:59:50.270Z,0.15
2022-10-04T11:05:04.683Z,0.38
2022-10-04T11:10:29.387Z,0.13
2022-10-04T11:16:22.599Z,0.00
2022-10-04T11:22:07.452Z,0.82
2022-10-04T11:27:34.241Z,0.13
2022-10-04T11:32:57.776Z,0.08
2022-10-04T11:38:27.771Z,0.20
2022-10-04T11:43:55.190Z,0.20
2022-10-04T11:49:37.441Z,0.17
2022-10-04T11:55:23.538Z,0.00
2022-10-04T12:00:43.310Z,0.57
2022-10-04T12:05:51.326Z,0.13
2022-10-04T12:11:23.947Z,0.15
2022-10-04T12:16:48.763Z,0.05
2022-10-04T12:22:28.467Z,0.60
2022-10-04T12:33:37.217Z,0.10
2022-10-04T12:39:04.304Z,0.28
2022-10-04T12:44:25.065Z,0.10
2022-10-04T12:50:03.964Z,0.20
2022-10-04T12:55:48.961Z,0.10
2022-10-04T13:01:02.652Z,0.10
2022-10-04T13:06:46.939Z,0.15
2022-10-04T13:11:56.450Z,0.30
2022-10-04T13:17:35.408Z,0.30
2022-10-04T13:23:07.347Z,0.20
2022-10-04T13:28:33.276Z,0.10
2022-10-04T13:34:07.740Z,0.17
2022-10-04T13:39:33.118Z,0.10
2022-10-04T13:45:03.957Z,0.10
2022-10-04T13:50:17.789Z,0.10
2022-10-04T13:56:32.093Z,0.10
2022-10-04T14:02:01.177Z,0.20
2022-10-04T14:07:31.626Z,0.30
2022-10-04T14:12:52.469Z,0.30
2022-10-04T14:18:03.685Z,0.10
2022-10-04T14:23:21.382Z,0.22
2022-10-04T14:28:25.171Z,0.43
2022-10-04T14:33:33.600Z,0.00
2022-10-04T14:38:59.292Z,0.00
2022-10-04T14:44:20.985Z,0.10
2022-10-04T14:50:08.302Z,0.10
2022-10-04T14:55:50.100Z,0.10
2022-10-04T15:01:07.571Z,0.00
2022-10-04T15:06:22.276Z,0.20
2022-10-04T15:11:57.494Z,0.30
2022-10-04T15:17:38.928Z,0.20
2022-10-04T15:23:08.120Z,0.10
2022-10-04T15:28:47.269Z,0.57
2022-10-04T15:34:08.257Z,1.52
2022-10-04T15:39:41.975Z,0.35
2022-10-04T15:44:59.309Z,0.30
2022-10-04T15:50:26.786Z,0.77
2022-10-04T15:55:28.910Z,0.13
2022-10-04T16:01:02.463Z,0.30
2022-10-04T16:06:22.259Z,0.20
2022-10-04T16:11:36.657Z,0.20
2022-10-04T16:17:17.673Z,0.45
2022-10-04T16:22:31.825Z,0.30
2022-10-04T16:27:37.019Z,0.20
2022-10-04T16:33:08.142Z,0.10
2022-10-04T16:38:17.356Z,0.30
2022-10-04T16:43:28.643Z,0.57
2022-10-04T16:48:50.481Z,0.30
2022-10-04T16:54:03.958Z,0.40
2022-10-04T16:59:14.239Z,1.00
2022-10-04T17:05:03.802Z,0.43
2022-10-04T17:10:39.470Z,0.35
2022-10-04T17:16:04.382Z,0.40
2022-10-04T17:21:50.842Z,0.43
2022-10-04T17:27:26.883Z,0.20
2022-10-04T17:32:48.802Z,0.47
2022-10-04T17:38:21.999Z,0.30
2022-10-04T17:44:14.476Z,0.80
2022-10-04T17:49:43.135Z,0.38
2022-10-04T17:55:13.235Z,0.40
2022-10-04T18:00:29.348Z,0.20
2022-10-04T18:05:52.520Z,0.20
2022-10-04T18:11:06.613Z,0.43
2022-10-04T18:16:18.603Z,0.50
2022-10-04T18:21:31.391Z,0.50
2022-10-04T18:26:36.530Z,0.40
2022-10-04T18:31:44.354Z,1.20
2022-10-04T18:37:05.854Z,0.40
2022-10-04T18:42:26.322Z,0.57
2022-10-04T18:47:39.819Z,0.40
2022-10-04T18:53:17.374Z,0.65
2022-10-04T18:59:12.346Z,0.40
2022-10-04T19:04:39.972Z,1.15
2022-10-04T19:10:12.568Z,0.47
2022-10-04T19:16:04.325Z,0.40
2022-10-04T19:21:14.737Z,0.45
2022-10-04T19:26:38.949Z,0.30
2022-10-04T19:32:16.009Z,0.52
2022-10-04T19:37:40.850Z,0.63
2022-10-04T19:43:07.509Z,0.75
2022-10-04T19:48:28.999Z,0.75
2022-10-04T19:53:45.757Z,0.73
2022-10-04T20:04:36.375Z,0.90
2022-10-04T20:09:49.279Z,0.63
2022-10-04T20:14:55.162Z,0.50
2022-10-04T20:20:02.648Z,0.60
2022-10-04T20:25:38.482Z,0.45
2022-10-04T20:31:03.670Z,0.60
2022-10-04T20:37:00.695Z,0.50
2022-10-04T20:42:23.247Z,1.50
2022-10-04T20:47:50.409Z,0.60
2022-10-04T20:52:58.614Z,0.63
2022-10-04T20:58:28.496Z,0.60
2022-10-04T21:03:32.701Z,0.45
2022-10-04T21:08:39.077Z,0.93
2022-10-04T21:13:42.838Z,0.50
2022-10-04T21:18:46.379Z,0.80
2022-10-04T21:29:13.090Z,0.40
2022-10-04T21:34:41.045Z,1.10
2022-10-04T21:39:47.043Z,0.40
2022-10-04T21:44:50.070Z,0.68
2022-10-04T21:49:57.494Z,0.70
2022-10-04T22:00:16.866Z,0.70
2022-10-04T22:05:21.492Z,0.90
2022-10-04T22:10:23.924Z,0.60
2022-10-04T22:15:28.061Z,0.85
2022-10-04T22:20:36.749Z,0.90
2022-10-04T22:25:40.691Z,0.90
2022-10-04T22:30:45.554Z,0.93
2022-10-04T22:35:49.254Z,0.63
2022-10-04T22:40:52.738Z,0.60
2022-10-04T22:46:00.672Z,0.77
2022-10-04T22:51:16.761Z,0.70
2022-10-04T22:56:20.272Z,1.10
2022-10-04T23:01:22.569Z,0.43
2022-10-04T23:06:26.374Z,1.10
2022-10-04T23:11:37.138Z,0.60
2022-10-04T23:16:39.608Z,1.48
2022-10-04T23:21:46.182Z,0.85
2022-10-04T23:26:58.068Z,0.88
2022-10-04T23:32:12.237Z,0.90
2022-10-04T23:37:34.371Z,0.98
2022-10-04T23:42:38.807Z,0.80
2022-10-04T23:48:00.229Z,1.33
2022-10-04T23:53:34.299Z,1.10
2022-10-04T23:58:46.810Z,0.88
